หน้าหลัก
METAR-TAF:

METAR-TAF

ท่าอากาศยาน :

Taos Regional Airport

Taos, นิวเม็กซิโก, สหรัฐอเมริกา

ละติจูด: 36-27N, ลองจิจูด: 105-40W, ความสูง: 2161 ม.

การสังเกตสภาพอากาศปัจจุบัน

รายงานได้ทำขึ้นเมื่อ 45 นาทีที่แล้ว ณ เวลา 04:56 UTC
ลม 6 นอตจากตะวันตก/ตะวันตกเฉียงเหนือ
อุณหภูมิ 14°C
ความชื้น 26%
ความกดอากาศ 1016 hPa
ทัศนวิสัย: 16.1 กม.
มีเมฆเป็นส่วนมากเว้นเป็นระยะที่ความสูง 11000 ฟุต

METAR: KSKX 260456Z AUTO 29006KT 10SM BKN110 14/M05 A3000 RMK AO2 SLP096 T01391050

เวลา: 23:41 (05:41 UTC)


TAF: หายไป

สังเกตการณ์สภาพอากาศและพยากรณ์อากาศของสนามบินมากกว่า 4000 แห่ง (รายงาน METAR และ TAF).

สถานีที่ดูได้จะแสดงไว้ด้วยจุดสีเหลืองและสีแดงบนแผนที่.

เลื่อนเมาส์ไปเหนือจุดเพื่อดูชื่อสถานี.

แล้วคลิกเพื่อดูสังเกตการณ์และการพยากรณ์สภาพอากาศ.

ในการเปลี่ยนแผนที่: คลิกที่ปุ่มสีเขียวที่มีกากบาทสีดำเพื่อซูมเข้า; ที่ปุ่มสีเขียวที่มีขีดเพื่อซูมออก; หรือที่ลูกศรสีเขียวเพื่อไปยังแผนที่ที่อยู่ติดกัน.


METAR-TAF: